Terminal Aerodrome Forecast
Issued by NWS Spokane, WA

Home | Current Version | Previous Version | Text Only | Print | Product List | Glossary On
Versions: 1 2 3 4 5 6 7 8 9 10 11 12 13
000
FTUS46 KOTX 282342
TAFLWS
TAF
KLWS 282342Z 2900/2924 29005KT P6SM VCSH BKN060 BKN120
     FM290300 29005KT P6SM -SHRA BKN050 BKN120
     FM290600 VRB04KT P6SM SCT060 SCT100
     FM291500 15005KT P6SM SCT150=

USA.gov is the U.S. government's official web portal to all federal, state and local government web resources and services.